sensor_id;sensor_type;location;lat;lon;timestamp;pressure;altitude;pressure_sealevel;temperature;humidity
40315;BME280;26021;45.640;11.302;2023-09-12T00:01:06;98643.16;;;19.54;100.00
40315;BME280;26021;45.640;11.302;2023-09-12T00:03:33;98638.06;;;19.46;100.00
40315;BME280;26021;45.640;11.302;2023-09-12T00:06:00;98650.34;;;19.36;100.00
40315;BME280;26021;45.640;11.302;2023-09-12T00:08:26;98624.28;;;19.35;100.00
40315;BME280;26021;45.640;11.302;2023-09-12T00:11:18;98643.25;;;19.47;100.00
40315;BME280;26021;45.640;11.302;2023-09-12T00:13:44;98642.19;;;19.48;100.00
40315;BME280;26021;45.640;11.302;2023-09-12T00:16:09;98638.06;;;19.46;100.00
40315;BME280;26021;45.640;11.302;2023-09-12T00:18:36;98636.44;;;19.45;100.00
40315;BME280;26021;45.640;11.302;2023-09-12T00:21:01;98635.00;;;19.42;100.00
40315;BME280;26021;45.640;11.302;2023-09-12T00:23:28;98632.19;;;19.37;100.00
40315;BME280;26021;45.640;11.302;2023-09-12T00:25:53;98634.19;;;19.30;100.00
40315;BME280;26021;45.640;11.302;2023-09-12T00:28:19;98635.84;;;19.19;100.00
40315;BME280;26021;45.640;11.302;2023-09-12T00:30:45;98583.91;;;18.99;100.00
40315;BME280;26021;45.640;11.302;2023-09-12T00:33:10;98574.94;;;18.98;100.00
40315;BME280;26021;45.640;11.302;2023-09-12T00:35:36;98576.34;;;19.01;100.00
40315;BME280;26021;45.640;11.302;2023-09-12T00:38:01;98628.06;;;19.34;100.00
40315;BME280;26021;45.640;11.302;2023-09-12T00:40:27;98616.75;;;19.38;100.00
40315;BME280;26021;45.640;11.302;2023-09-12T00:42:52;98616.75;;;19.14;100.00
40315;BME280;26021;45.640;11.302;2023-09-12T00:45:18;98605.91;;;19.14;100.00
40315;BME280;26021;45.640;11.302;2023-09-12T00:47:44;98628.31;;;19.10;100.00
40315;BME280;26021;45.640;11.302;2023-09-12T00:50:10;98616.75;;;19.38;100.00
40315;BME280;26021;45.640;11.302;2023-09-12T00:52:36;98571.75;;;19.01;100.00
40315;BME280;26021;45.640;11.302;2023-09-12T00:55:04;98615.34;;;19.35;100.00
40315;BME280;26021;45.640;11.302;2023-09-12T00:57:30;98617.59;;;19.15;100.00
40315;BME280;26021;45.640;11.302;2023-09-12T00:59:56;98625.00;;;19.08;100.00
40315;BME280;26021;45.640;11.302;2023-09-12T01:02:24;98628.91;;;19.12;100.00
40315;BME280;26021;45.640;11.302;2023-09-12T01:04:50;98633.72;;;19.10;100.00
40315;BME280;26021;45.640;11.302;2023-09-12T01:07:16;98625.94;;;19.25;100.00
40315;BME280;26021;45.640;11.302;2023-09-12T01:09:42;98609.44;;;19.15;100.00
40315;BME280;26021;45.640;11.302;2023-09-12T01:12:08;98627.25;;;19.34;100.00
40315;BME280;26021;45.640;11.302;2023-09-12T01:14:33;98605.00;;;18.97;100.00
40315;BME280;26021;45.640;11.302;2023-09-12T01:17:00;98628.75;;;19.30;100.00
40315;BME280;26021;45.640;11.302;2023-09-12T01:19:26;98625.25;;;19.18;100.00
40315;BME280;26021;45.640;11.302;2023-09-12T01:29:36;98619.47;;;19.02;100.00
40315;BME280;26021;45.640;11.302;2023-09-12T01:32:03;98577.56;;;18.70;100.00
40315;BME280;26021;45.640;11.302;2023-09-12T01:34:28;98628.56;;;18.96;100.00
40315;BME280;26021;45.640;11.302;2023-09-12T01:36:54;98631.16;;;18.91;100.00
40315;BME280;26021;45.640;11.302;2023-09-12T01:39:19;98628.44;;;19.03;100.00
40315;BME280;26021;45.640;11.302;2023-09-12T01:41:46;98633.25;;;19.01;100.00
40315;BME280;26021;45.640;11.302;2023-09-12T01:44:14;98609.69;;;19.01;100.00
40315;BME280;26021;45.640;11.302;2023-09-12T01:46:41;98590.16;;;18.88;100.00
40315;BME280;26021;45.640;11.302;2023-09-12T01:49:09;98621.94;;;19.04;100.00
40315;BME280;26021;45.640;11.302;2023-09-12T01:51:35;98634.34;;;18.88;100.00
40315;BME280;26021;45.640;11.302;2023-09-12T01:54:01;98636.56;;;18.80;100.00
40315;BME280;26021;45.640;11.302;2023-09-12T01:56:28;98631.63;;;18.77;100.00
40315;BME280;26021;45.640;11.302;2023-09-12T01:58:55;98618.06;;;18.77;100.00
40315;BME280;26021;45.640;11.302;2023-09-12T02:01:21;98637.41;;;18.92;100.00
40315;BME280;26021;45.640;11.302;2023-09-12T02:03:46;98641.03;;;18.97;100.00
40315;BME280;26021;45.640;11.302;2023-09-12T02:06:12;98638.22;;;18.81;100.00
40315;BME280;26021;45.640;11.302;2023-09-12T02:08:37;98633.63;;;18.81;100.00
40315;BME280;26021;45.640;11.302;2023-09-12T02:11:02;98628.69;;;18.78;100.00
40315;BME280;26021;45.640;11.302;2023-09-12T02:13:28;98629.97;;;18.76;100.00
40315;BME280;26021;45.640;11.302;2023-09-12T02:16:00;98631.38;;;18.78;100.00
40315;BME280;26021;45.640;11.302;2023-09-12T02:18:25;98616.41;;;18.76;100.00
40315;BME280;26021;45.640;11.302;2023-09-12T02:20:51;98636.69;;;18.73;100.00
40315;BME280;26021;45.640;11.302;2023-09-12T02:23:16;98640.91;;;18.69;100.00
40315;BME280;26021;45.640;11.302;2023-09-12T02:25:42;98632.50;;;18.59;100.00
40315;BME280;26021;45.640;11.302;2023-09-12T02:28:08;98640.47;;;18.54;100.00
40315;BME280;26021;45.640;11.302;2023-09-12T02:30:33;98634.59;;;18.57;100.00
40315;BME280;26021;45.640;11.302;2023-09-12T02:32:58;98638.53;;;18.61;100.00
40315;BME280;26021;45.640;11.302;2023-09-12T02:35:24;98603.50;;;18.48;100.00
40315;BME280;26021;45.640;11.302;2023-09-12T02:37:49;98641.28;;;18.84;100.00
40315;BME280;26021;45.640;11.302;2023-09-12T02:40:15;98633.16;;;18.72;100.00
40315;BME280;26021;45.640;11.302;2023-09-12T02:42:40;98636.22;;;18.64;100.00
40315;BME280;26021;45.640;11.302;2023-09-12T02:45:06;98643.50;;;18.76;100.00
40315;BME280;26021;45.640;11.302;2023-09-12T02:47:31;98637.63;;;18.67;100.00
40315;BME280;26021;45.640;11.302;2023-09-12T02:49:57;98639.75;;;18.65;100.00
40315;BME280;26021;45.640;11.302;2023-09-12T02:52:22;98628.34;;;18.56;100.00
40315;BME280;26021;45.640;11.302;2023-09-12T02:54:47;98635.41;;;18.46;100.00
40315;BME280;26021;45.640;11.302;2023-09-12T02:57:13;98633.53;;;18.46;100.00
40315;BME280;26021;45.640;11.302;2023-09-12T02:59:38;98633.09;;;18.61;100.00
40315;BME280;26021;45.640;11.302;2023-09-12T03:02:04;98635.31;;;18.52;100.00
40315;BME280;26021;45.640;11.302;2023-09-12T03:04:29;98633.06;;;18.49;100.00
40315;BME280;26021;45.640;11.302;2023-09-12T03:06:55;98630.81;;;18.46;100.00
40315;BME280;26021;45.640;11.302;2023-09-12T03:09:20;98633.41;;;18.53;100.00
40315;BME280;26021;45.640;11.302;2023-09-12T03:11:48;98631.78;;;18.52;100.00
40315;BME280;26021;45.640;11.302;2023-09-12T03:14:14;98630.84;;;18.58;100.00
40315;BME280;26021;45.640;11.302;2023-09-12T03:16:39;98630.56;;;18.66;100.00
40315;BME280;26021;45.640;11.302;2023-09-12T03:19:05;98618.94;;;18.47;100.00
40315;BME280;26021;45.640;11.302;2023-09-12T03:21:30;98624.56;;;18.46;100.00
40315;BME280;26021;45.640;11.302;2023-09-12T03:23:56;98627.38;;;18.39;100.00
40315;BME280;26021;45.640;11.302;2023-09-12T03:26:21;98624.69;;;18.39;100.00
40315;BME280;26021;45.640;11.302;2023-09-12T03:28:49;98619.97;;;18.34;100.00
40315;BME280;26021;45.640;11.302;2023-09-12T03:31:15;98622.66;;;18.34;100.00
40315;BME280;26021;45.640;11.302;2023-09-12T03:33:41;98613.25;;;18.37;100.00
40315;BME280;26021;45.640;11.302;2023-09-12T03:36:08;98611.94;;;18.28;100.00
40315;BME280;26021;45.640;11.302;2023-09-12T03:38:34;98625.03;;;18.42;100.00
40315;BME280;26021;45.640;11.302;2023-09-12T03:41:00;98617.03;;;18.48;100.00
40315;BME280;26021;45.640;11.302;2023-09-12T03:43:26;98612.81;;;18.52;100.00
40315;BME280;26021;45.640;11.302;2023-09-12T03:45:51;98581.56;;;18.26;100.00
40315;BME280;26021;45.640;11.302;2023-09-12T03:48:17;98602.31;;;18.43;100.00
40315;BME280;26021;45.640;11.302;2023-09-12T03:50:44;98614.47;;;18.53;100.00
40315;BME280;26021;45.640;11.302;2023-09-12T03:53:10;98618.34;;;18.45;100.00
40315;BME280;26021;45.640;11.302;2023-09-12T03:55:36;98618.41;;;18.27;100.00
40315;BME280;26021;45.640;11.302;2023-09-12T03:58:01;98614.94;;;18.50;100.00
40315;BME280;26021;45.640;11.302;2023-09-12T04:00:27;98620.75;;;18.23;100.00
40315;BME280;26021;45.640;11.302;2023-09-12T04:02:52;98618.88;;;18.24;100.00
40315;BME280;26021;45.640;11.302;2023-09-12T04:05:18;98615.50;;;18.40;100.00
40315;BME280;26021;45.640;11.302;2023-09-12T04:07:43;98624.69;;;18.51;100.00
40315;BME280;26021;45.640;11.302;2023-09-12T04:10:09;98618.66;;;18.25;100.00
40315;BME280;26021;45.640;11.302;2023-09-12T04:12:34;98589.53;;;18.09;100.00
40315;BME280;26021;45.640;11.302;2023-09-12T04:15:00;98621.16;;;18.38;100.00
40315;BME280;26021;45.640;11.302;2023-09-12T04:17:25;98623.84;;;18.27;100.00
40315;BME280;26021;45.640;11.302;2023-09-12T04:19:50;98624.44;;;18.29;100.00
40315;BME280;26021;45.640;11.302;2023-09-12T04:22:16;98617.00;;;18.24;100.00
40315;BME280;26021;45.640;11.302;2023-09-12T04:24:41;98615.66;;;18.03;100.00
40315;BME280;26021;45.640;11.302;2023-09-12T04:27:07;98617.06;;;18.06;100.00
40315;BME280;26021;45.640;11.302;2023-09-12T04:29:33;98623.56;;;18.17;100.00
40315;BME280;26021;45.640;11.302;2023-09-12T04:32:03;98619.53;;;18.07;100.00
40315;BME280;26021;45.640;11.302;2023-09-12T04:34:30;98618.53;;;18.20;100.00
40315;BME280;26021;45.640;11.302;2023-09-12T04:36:56;98615.41;;;18.05;100.00
40315;BME280;26021;45.640;11.302;2023-09-12T04:39:21;98619.78;;;18.06;100.00
40315;BME280;26021;45.640;11.302;2023-09-12T04:41:47;98621.53;;;18.00;100.00
40315;BME280;26021;45.640;11.302;2023-09-12T04:44:12;98606.66;;;17.91;100.00
40315;BME280;26021;45.640;11.302;2023-09-12T04:46:38;98626.16;;;18.12;100.00
40315;BME280;26021;45.640;11.302;2023-09-12T04:49:03;98633.22;;;18.13;100.00
40315;BME280;26021;45.640;11.302;2023-09-12T04:51:29;98627.16;;;18.40;100.00
40315;BME280;26021;45.640;11.302;2023-09-12T04:53:54;98564.13;;;17.80;100.00
40315;BME280;26021;45.640;11.302;2023-09-12T04:56:20;98633.66;;;18.09;100.00
40315;BME280;26021;45.640;11.302;2023-09-12T04:58:46;98591.56;;;18.14;100.00
40315;BME280;26021;45.640;11.302;2023-09-12T05:01:11;98649.78;;;18.46;100.00
40315;BME280;26021;45.640;11.302;2023-09-12T05:03:37;98647.59;;;18.25;100.00
40315;BME280;26021;45.640;11.302;2023-09-12T05:06:02;98640.72;;;18.10;100.00
40315;BME280;26021;45.640;11.302;2023-09-12T05:08:29;98637.25;;;18.22;100.00
40315;BME280;26021;45.640;11.302;2023-09-12T05:10:54;98654.34;;;18.34;100.00
40315;BME280;26021;45.640;11.302;2023-09-12T05:13:20;98648.34;;;18.43;100.00
40315;BME280;26021;45.640;11.302;2023-09-12T05:15:46;98654.38;;;18.46;100.00
40315;BME280;26021;45.640;11.302;2023-09-12T05:18:12;98650.84;;;18.45;100.00
40315;BME280;26021;45.640;11.302;2023-09-12T05:20:37;98653.75;;;18.62;100.00
40315;BME280;26021;45.640;11.302;2023-09-12T05:23:03;98656.94;;;18.40;100.00
40315;BME280;26021;45.640;11.302;2023-09-12T05:25:28;98652.38;;;18.53;100.00
40315;BME280;26021;45.640;11.302;2023-09-12T05:27:55;98655.19;;;18.76;100.00
40315;BME280;26021;45.640;11.302;2023-09-12T05:30:21;98644.38;;;18.58;100.00
40315;BME280;26021;45.640;11.302;2023-09-12T05:32:46;98657.53;;;18.84;100.00
40315;BME280;26021;45.640;11.302;2023-09-12T05:35:12;98644.56;;;18.75;100.00
40315;BME280;26021;45.640;11.302;2023-09-12T05:37:37;98658.00;;;18.93;100.00
40315;BME280;26021;45.640;11.302;2023-09-12T05:40:03;98662.25;;;18.89;100.00
40315;BME280;26021;45.640;11.302;2023-09-12T05:42:29;98650.81;;;18.87;100.00
40315;BME280;26021;45.640;11.302;2023-09-12T05:44:55;98660.13;;;18.79;100.00
40315;BME280;26021;45.640;11.302;2023-09-12T05:47:21;98665.19;;;18.87;100.00
40315;BME280;26021;45.640;11.302;2023-09-12T05:49:47;98661.91;;;18.85;100.00
40315;BME280;26021;45.640;11.302;2023-09-12T05:52:12;98671.69;;;18.98;100.00
40315;BME280;26021;45.640;11.302;2023-09-12T05:54:39;98665.66;;;19.08;100.00
40315;BME280;26021;45.640;11.302;2023-09-12T05:57:06;98616.06;;;18.72;100.00
40315;BME280;26021;45.640;11.302;2023-09-12T05:59:31;98673.09;;;19.12;100.00
40315;BME280;26021;45.640;11.302;2023-09-12T06:01:56;98665.44;;;19.21;100.00
40315;BME280;26021;45.640;11.302;2023-09-12T06:04:22;98669.44;;;19.18;100.00
40315;BME280;26021;45.640;11.302;2023-09-12T06:06:47;98665.31;;;19.39;100.00
40315;BME280;26021;45.640;11.302;2023-09-12T06:09:13;98641.25;;;19.31;100.00
40315;BME280;26021;45.640;11.302;2023-09-12T06:11:38;98662.94;;;19.66;100.00
40315;BME280;26021;45.640;11.302;2023-09-12T06:14:04;98673.47;;;19.91;100.00
40315;BME280;26021;45.640;11.302;2023-09-12T06:16:29;98659.28;;;20.00;100.00
40315;BME280;26021;45.640;11.302;2023-09-12T06:18:55;98666.19;;;20.20;100.00
40315;BME280;26021;45.640;11.302;2023-09-12T06:21:20;98661.44;;;20.27;100.00
40315;BME280;26021;45.640;11.302;2023-09-12T06:24:15;98658.19;;;20.42;100.00
40315;BME280;26021;45.640;11.302;2023-09-12T06:26:41;98665.94;;;20.50;100.00
40315;BME280;26021;45.640;11.302;2023-09-12T06:29:06;98668.84;;;20.60;100.00
40315;BME280;26021;45.640;11.302;2023-09-12T06:31:32;98662.25;;;20.73;100.00
40315;BME280;26021;45.640;11.302;2023-09-12T06:33:58;98666.38;;;20.75;100.00
40315;BME280;26021;45.640;11.302;2023-09-12T06:36:27;98682.63;;;20.87;100.00
40315;BME280;26021;45.640;11.302;2023-09-12T06:38:55;98669.50;;;21.01;100.00
40315;BME280;26021;45.640;11.302;2023-09-12T06:41:21;98672.06;;;21.24;100.00
40315;BME280;26021;45.640;11.302;2023-09-12T06:43:46;98672.78;;;21.36;100.00
40315;BME280;26021;45.640;11.302;2023-09-12T06:46:12;98678.47;;;21.35;100.00
40315;BME280;26021;45.640;11.302;2023-09-12T06:48:38;98675.69;;;21.68;100.00
40315;BME280;26021;45.640;11.302;2023-09-12T06:51:08;98678.59;;;22.05;100.00
40315;BME280;26021;45.640;11.302;2023-09-12T06:53:34;98676.88;;;22.21;100.00
40315;BME280;26021;45.640;11.302;2023-09-12T06:55:59;98679.28;;;21.96;100.00
40315;BME280;26021;45.640;11.302;2023-09-12T06:58:25;98663.19;;;22.16;100.00
40315;BME280;26021;45.640;11.302;2023-09-12T07:00:51;98684.78;;;22.23;100.00
40315;BME280;26021;45.640;11.302;2023-09-12T07:03:16;98685.22;;;22.36;100.00
40315;BME280;26021;45.640;11.302;2023-09-12T07:05:43;98685.63;;;22.50;100.00
40315;BME280;26021;45.640;11.302;2023-09-12T07:08:08;98690.06;;;22.56;100.00
40315;BME280;26021;45.640;11.302;2023-09-12T07:10:34;98691.91;;;22.50;99.57
40315;BME280;26021;45.640;11.302;2023-09-12T07:12:59;98698.84;;;22.90;98.51
40315;BME280;26021;45.640;11.302;2023-09-12T07:15:25;98691.56;;;23.38;95.88
40315;BME280;26021;45.640;11.302;2023-09-12T07:17:50;98694.78;;;23.30;93.71
40315;BME280;26021;45.640;11.302;2023-09-12T07:20:16;98694.19;;;23.60;92.25
40315;BME280;26021;45.640;11.302;2023-09-12T07:22:43;98691.22;;;23.71;90.33
40315;BME280;26021;45.640;11.302;2023-09-12T07:25:09;98682.56;;;23.80;92.27
40315;BME280;26021;45.640;11.302;2023-09-12T07:27:37;98684.78;;;23.88;90.63
40315;BME280;26021;45.640;11.302;2023-09-12T07:30:04;98671.69;;;23.90;90.64
40315;BME280;26021;45.640;11.302;2023-09-12T07:32:29;98677.72;;;23.97;92.87
40315;BME280;26021;45.640;11.302;2023-09-12T07:34:55;98685.09;;;23.96;92.23
40315;BME280;26021;45.640;11.302;2023-09-12T07:37:20;98685.69;;;24.14;91.83
40315;BME280;26021;45.640;11.302;2023-09-12T07:39:46;98688.63;;;23.97;91.12
40315;BME280;26021;45.640;11.302;2023-09-12T07:42:11;98689.59;;;23.70;91.23
40315;BME280;26021;45.640;11.302;2023-09-12T07:44:36;98688.41;;;24.08;90.63
40315;BME280;26021;45.640;11.302;2023-09-12T07:47:03;98695.78;;;24.13;89.65
40315;BME280;26021;45.640;11.302;2023-09-12T07:49:28;98688.75;;;24.32;87.81
40315;BME280;26021;45.640;11.302;2023-09-12T07:51:54;98691.53;;;24.43;83.75
40315;BME280;26021;45.640;11.302;2023-09-12T07:54:22;98693.78;;;24.71;79.69
40315;BME280;26021;45.640;11.302;2023-09-12T07:56:47;98691.31;;;24.85;81.85
40315;BME280;26021;45.640;11.302;2023-09-12T07:59:12;98700.09;;;25.12;83.78
40315;BME280;26021;45.640;11.302;2023-09-12T08:01:39;98705.47;;;24.51;78.87
40315;BME280;26021;45.640;11.302;2023-09-12T08:04:04;98686.03;;;24.27;79.85
40315;BME280;26021;45.640;11.302;2023-09-12T08:06:30;98700.81;;;24.47;79.13
40315;BME280;26021;45.640;11.302;2023-09-12T08:08:56;98691.88;;;24.87;76.12
40315;BME280;26021;45.640;11.302;2023-09-12T08:11:21;98694.63;;;25.12;72.88
40315;BME280;26021;45.640;11.302;2023-09-12T08:13:49;98695.16;;;25.09;74.41
40315;BME280;26021;45.640;11.302;2023-09-12T08:16:15;98685.56;;;24.96;74.82
40315;BME280;26021;45.640;11.302;2023-09-12T08:18:41;98680.66;;;24.68;75.91
40315;BME280;26021;45.640;11.302;2023-09-12T08:21:06;98697.09;;;24.98;75.25
40315;BME280;26021;45.640;11.302;2023-09-12T08:23:31;98700.38;;;25.11;75.87
40315;BME280;26021;45.640;11.302;2023-09-12T08:25:57;98701.72;;;25.18;74.27
40315;BME280;26021;45.640;11.302;2023-09-12T08:28:22;98697.06;;;25.24;74.44
40315;BME280;26021;45.640;11.302;2023-09-12T08:30:48;98704.19;;;25.40;76.18
40315;BME280;26021;45.640;11.302;2023-09-12T08:33:13;98637.13;;;25.17;75.19
40315;BME280;26021;45.640;11.302;2023-09-12T08:35:38;98698.66;;;25.65;71.76
40315;BME280;26021;45.640;11.302;2023-09-12T08:38:04;98695.38;;;25.58;73.24
40315;BME280;26021;45.640;11.302;2023-09-12T08:40:30;98700.28;;;25.72;72.95
40315;BME280;26021;45.640;11.302;2023-09-12T08:42:57;98699.09;;;26.03;72.12
40315;BME280;26021;45.640;11.302;2023-09-12T08:45:23;98697.16;;;26.09;69.89
40315;BME280;26021;45.640;11.302;2023-09-12T08:47:53;98699.69;;;25.90;69.78
40315;BME280;26021;45.640;11.302;2023-09-12T08:50:19;98698.19;;;25.28;74.39
40315;BME280;26021;45.640;11.302;2023-09-12T08:52:46;98695.72;;;25.11;78.97
40315;BME280;26021;45.640;11.302;2023-09-12T08:55:12;98686.94;;;25.14;78.54
40315;BME280;26021;45.640;11.302;2023-09-12T08:57:43;98691.34;;;25.15;78.11
40315;BME280;26021;45.640;11.302;2023-09-12T09:00:10;98697.91;;;25.04;79.02
40315;BME280;26021;45.640;11.302;2023-09-12T09:02:39;98696.81;;;25.00;78.21
40315;BME280;26021;45.640;11.302;2023-09-12T09:05:08;98709.38;;;25.42;76.14
40315;BME280;26021;45.640;11.302;2023-09-12T09:07:35;98702.22;;;25.56;74.49
40315;BME280;26021;45.640;11.302;2023-09-12T09:10:03;98697.28;;;25.73;73.76
40315;BME280;26021;45.640;11.302;2023-09-12T09:12:35;98700.56;;;25.70;72.28
40315;BME280;26021;45.640;11.302;2023-09-12T09:15:24;98702.47;;;25.64;73.72
40315;BME280;26021;45.640;11.302;2023-09-12T09:17:52;98655.69;;;25.56;74.48
40315;BME280;26021;45.640;11.302;2023-09-12T09:20:26;98696.41;;;25.83;71.76
40315;BME280;26021;45.640;11.302;2023-09-12T09:23:05;98697.41;;;26.12;73.13
40315;BME280;26021;45.640;11.302;2023-09-12T09:25:32;98690.41;;;25.76;73.67
40315;BME280;26021;45.640;11.302;2023-09-12T09:27:58;98697.19;;;25.98;73.19
40315;BME280;26021;45.640;11.302;2023-09-12T09:30:40;98694.19;;;25.95;71.89
40315;BME280;26021;45.640;11.302;2023-09-12T09:33:06;98653.19;;;25.70;72.42
40315;BME280;26021;45.640;11.302;2023-09-12T09:35:32;98689.84;;;25.84;74.09
40315;BME280;26021;45.640;11.302;2023-09-12T09:37:58;98693.41;;;25.84;74.05
40315;BME280;26021;45.640;11.302;2023-09-12T09:40:24;98694.78;;;25.82;74.12
40315;BME280;26021;45.640;11.302;2023-09-12T09:42:57;98671.00;;;25.72;73.90
40315;BME280;26021;45.640;11.302;2023-09-12T09:45:23;98700.19;;;25.97;75.13
40315;BME280;26021;45.640;11.302;2023-09-12T09:47:49;98695.81;;;26.06;74.87
40315;BME280;26021;45.640;11.302;2023-09-12T09:50:16;98694.91;;;26.21;73.61
40315;BME280;26021;45.640;11.302;2023-09-12T09:52:43;98688.41;;;26.07;74.51
40315;BME280;26021;45.640;11.302;2023-09-12T09:55:14;98695.25;;;26.04;74.38
40315;BME280;26021;45.640;11.302;2023-09-12T09:57:40;98673.09;;;25.90;74.03
40315;BME280;26021;45.640;11.302;2023-09-12T10:00:06;98686.44;;;26.17;73.31
40315;BME280;26021;45.640;11.302;2023-09-12T10:02:35;98680.13;;;26.17;73.28
40315;BME280;26021;45.640;11.302;2023-09-12T10:05:04;98688.31;;;26.22;75.24
40315;BME280;26021;45.640;11.302;2023-09-12T10:07:32;98684.50;;;26.18;74.66
40315;BME280;26021;45.640;11.302;2023-09-12T10:10:00;98685.81;;;26.31;74.30
40315;BME280;26021;45.640;11.302;2023-09-12T10:12:28;98683.00;;;26.46;73.14
40315;BME280;26021;45.640;11.302;2023-09-12T10:14:58;98654.31;;;26.23;73.33
40315;BME280;26021;45.640;11.302;2023-09-12T10:17:28;98675.84;;;26.50;74.20
40315;BME280;26021;45.640;11.302;2023-09-12T10:20:00;98673.34;;;26.53;73.84
40315;BME280;26021;45.640;11.302;2023-09-12T10:22:39;98676.13;;;26.48;75.23
40315;BME280;26021;45.640;11.302;2023-09-12T10:25:07;98670.28;;;26.60;74.56
40315;BME280;26021;45.640;11.302;2023-09-12T10:27:33;98670.63;;;26.48;75.46
40315;BME280;26021;45.640;11.302;2023-09-12T10:29:59;98662.91;;;26.55;75.46
40315;BME280;26021;45.640;11.302;2023-09-12T10:32:26;98666.25;;;26.47;74.92
40315;BME280;26021;45.640;11.302;2023-09-12T10:34:53;98673.06;;;26.55;73.62
40315;BME280;26021;45.640;11.302;2023-09-12T10:37:25;98672.00;;;26.51;74.21
40315;BME280;26021;45.640;11.302;2023-09-12T10:39:53;98658.41;;;26.70;73.98
40315;BME280;26021;45.640;11.302;2023-09-12T10:42:20;98622.69;;;26.75;72.98
40315;BME280;26021;45.640;11.302;2023-09-12T10:44:46;98667.50;;;27.04;72.74
40315;BME280;26021;45.640;11.302;2023-09-12T10:47:12;98665.81;;;26.69;72.63
40315;BME280;26021;45.640;11.302;2023-09-12T10:49:39;98633.09;;;26.83;70.51
40315;BME280;26021;45.640;11.302;2023-09-12T10:52:05;98673.38;;;27.21;71.25
40315;BME280;26021;45.640;11.302;2023-09-12T10:54:40;98661.94;;;27.38;69.35
40315;BME280;26021;45.640;11.302;2023-09-12T10:57:08;98664.84;;;27.52;68.17
40315;BME280;26021;45.640;11.302;2023-09-12T10:59:36;98660.47;;;27.46;68.37
40315;BME280;26021;45.640;11.302;2023-09-12T11:02:30;98664.22;;;27.02;68.35
40315;BME280;26021;45.640;11.302;2023-09-12T11:05:00;98663.03;;;27.13;69.24
40315;BME280;26021;45.640;11.302;2023-09-12T11:12:44;98647.41;;;27.38;68.69
40315;BME280;26021;45.640;11.302;2023-09-12T11:15:10;98655.53;;;27.48;68.01
40315;BME280;26021;45.640;11.302;2023-09-12T11:17:51;98650.13;;;27.38;66.04
40315;BME280;26021;45.640;11.302;2023-09-12T11:20:24;98660.38;;;27.61;65.81
40315;BME280;26021;45.640;11.302;2023-09-12T11:22:50;98661.31;;;27.75;65.10
40315;BME280;26021;45.640;11.302;2023-09-12T11:25:23;98654.34;;;27.83;64.70
40315;BME280;26021;45.640;11.302;2023-09-12T11:30:22;98637.34;;;28.00;63.48
40315;BME280;26021;45.640;11.302;2023-09-12T11:32:53;98594.56;;;27.94;63.78
40315;BME280;26021;45.640;11.302;2023-09-12T11:35:24;98642.25;;;28.03;63.15
40315;BME280;26021;45.640;11.302;2023-09-12T11:37:51;98632.81;;;27.90;64.29
40315;BME280;26021;45.640;11.302;2023-09-12T11:40:21;98638.38;;;28.04;64.09
40315;BME280;26021;45.640;11.302;2023-09-12T11:42:47;98596.03;;;28.05;62.33
40315;BME280;26021;45.640;11.302;2023-09-12T11:45:18;98633.56;;;28.38;62.40
40315;BME280;26021;45.640;11.302;2023-09-12T11:47:45;98632.09;;;28.22;62.22
40315;BME280;26021;45.640;11.302;2023-09-12T11:50:29;98637.50;;;28.32;61.58
40315;BME280;26021;45.640;11.302;2023-09-12T11:53:13;98627.47;;;28.17;62.94
40315;BME280;26021;45.640;11.302;2023-09-12T11:55:50;98636.16;;;28.30;62.77
40315;BME280;26021;45.640;11.302;2023-09-12T11:58:19;98625.31;;;28.14;62.33
40315;BME280;26021;45.640;11.302;2023-09-12T12:00:46;98625.38;;;28.33;62.00
40315;BME280;26021;45.640;11.302;2023-09-12T12:03:13;98619.03;;;28.52;62.22
40315;BME280;26021;45.640;11.302;2023-09-12T12:05:39;98584.84;;;28.39;61.89
40315;BME280;26021;45.640;11.302;2023-09-12T12:08:07;98619.28;;;28.88;61.33
40315;BME280;26021;45.640;11.302;2023-09-12T12:10:33;98611.25;;;28.72;60.04
40315;BME280;26021;45.640;11.302;2023-09-12T12:12:58;98613.09;;;28.44;61.70
40315;BME280;26021;45.640;11.302;2023-09-12T12:15:24;98613.91;;;28.45;62.25
40315;BME280;26021;45.640;11.302;2023-09-12T12:17:54;98624.47;;;28.57;62.66
40315;BME280;26021;45.640;11.302;2023-09-12T12:20:21;98613.84;;;28.31;61.37
40315;BME280;26021;45.640;11.302;2023-09-12T12:22:46;98609.00;;;28.23;62.18
40315;BME280;26021;45.640;11.302;2023-09-12T12:25:12;98607.47;;;28.36;62.70
40315;BME280;26021;45.640;11.302;2023-09-12T12:27:41;98610.06;;;28.27;64.20
40315;BME280;26021;45.640;11.302;2023-09-12T12:30:11;98597.06;;;28.33;61.92
40315;BME280;26021;45.640;11.302;2023-09-12T12:32:44;98601.88;;;28.41;62.17
40315;BME280;26021;45.640;11.302;2023-09-12T12:35:23;98593.97;;;28.53;62.50
40315;BME280;26021;45.640;11.302;2023-09-12T12:37:49;98590.50;;;28.80;61.59
40315;BME280;26021;45.640;11.302;2023-09-12T12:40:17;98588.72;;;28.70;59.71
40315;BME280;26021;45.640;11.302;2023-09-12T12:42:44;98591.19;;;28.72;60.41
40315;BME280;26021;45.640;11.302;2023-09-12T12:45:16;98581.06;;;28.67;60.45
40315;BME280;26021;45.640;11.302;2023-09-12T12:47:42;98582.25;;;29.13;60.15
40315;BME280;26021;45.640;11.302;2023-09-12T12:50:10;98576.72;;;28.99;59.98
40315;BME280;26021;45.640;11.302;2023-09-12T12:52:37;98577.72;;;28.70;59.09
40315;BME280;26021;45.640;11.302;2023-09-12T12:55:04;98582.88;;;28.58;60.46
40315;BME280;26021;45.640;11.302;2023-09-12T12:57:30;98534.63;;;28.33;59.37
40315;BME280;26021;45.640;11.302;2023-09-12T12:59:55;98576.66;;;28.85;60.08